Time,TemperatureF,DewpointF,PressureIn,WindDirection,WindDirectionDegrees,WindSpeedMPH,WindSpeedGustMPH,Humidity,HourlyPrecipIn,Conditions,Clouds,dailyrainin,SoftwareType,DateUTC
2013-09-02 00:02:00,70.7,0.0,29.79,SSW,192,0.0,0.0,0,0.00,CLR,,0.00,WeatherDisplay:10.37,2013-09-02 05:02:00,
2013-09-02 00:07:00,70.8,0.0,29.79,SSW,192,0.0,0.0,0,0.00,CLR,,0.00,WeatherDisplay:10.37,2013-09-02 05:07:00,
2013-09-02 00:12:00,70.9,0.0,29.79,SSW,192,0.0,0.0,0,0.00,CLR,,0.00,WeatherDisplay:10.37,2013-09-02 05:12:00,
2013-09-02 00:17:00,71.2,0.0,29.78,SSW,192,0.0,0.0,0,0.00,CLR,,0.00,WeatherDisplay:10.37,2013-09-02 05:17:00,
2013-09-02 00:22:00,71.3,0.0,29.78,SSW,192,0.0,0.0,0,0.00,CLR,,0.00,WeatherDisplay:10.37,2013-09-02 05:22:00,
2013-09-02 00:27:00,71.5,0.0,29.78,SSW,192,0.0,0.0,0,0.00,CLR,,0.00,WeatherDisplay:10.37,2013-09-02 05:27:00,
2013-09-02 00:32:00,71.8,0.0,29.77,SSW,192,0.0,0.0,0,0.00,CLR,,0.00,WeatherDisplay:10.37,2013-09-02 05:32:00,
2013-09-02 00:37:00,72.0,0.0,29.77,SSW,192,0.0,0.0,0,0.00,CLR,,0.00,WeatherDisplay:10.37,2013-09-02 05:37:00,
2013-09-02 00:42:00,72.1,0.0,29.77,SSE,162,9.2,9.2,0,0.00,CLR,,0.00,WeatherDisplay:10.37,2013-09-02 05:42:00,
2013-09-02 00:47:00,72.1,0.0,29.76,SSE,162,0.0,0.0,0,0.00,CLR,,0.00,WeatherDisplay:10.37,2013-09-02 05:47:00,
2013-09-02 00:52:00,72.1,0.0,29.77,SE,140,5.8,5.8,0,0.00,CLR,,0.00,WeatherDisplay:10.37,2013-09-02 05:52:00,
2013-09-02 00:57:00,72.1,0.0,29.77,SE,140,0.0,0.0,0,0.00,CLR,,0.00,WeatherDisplay:10.37,2013-09-02 05:57:00,
2013-09-02 01:02:00,71.9,0.0,29.77,SE,140,0.0,0.0,0,0.00,CLR,,0.00,WeatherDisplay:10.37,2013-09-02 06:02:00,
2013-09-02 01:07:00,71.7,0.0,29.77,SE,140,0.0,0.0,0,0.00,CLR,,0.00,WeatherDisplay:10.37,2013-09-02 06:07:00,
2013-09-02 01:12:00,71.6,0.0,29.77,SSE,164,0.0,0.0,0,0.00,CLR,,0.00,WeatherDisplay:10.37,2013-09-02 06:12:00,
2013-09-02 01:17:00,71.5,0.0,29.77,SSE,164,0.0,0.0,0,0.00,CLR,,0.00,WeatherDisplay:10.37,2013-09-02 06:17:00,
2013-09-02 01:22:00,71.4,0.0,29.77,SSE,164,0.0,0.0,0,0.00,CLR,,0.00,WeatherDisplay:10.37,2013-09-02 06:22:00,
2013-09-02 01:27:00,71.3,0.0,29.77,SSE,164,0.0,0.0,0,0.00,CLR,,0.00,WeatherDisplay:10.37,2013-09-02 06:27:00,
2013-09-02 01:32:00,71.2,0.0,29.77,SSE,164,0.0,0.0,0,0.00,CLR,,0.00,WeatherDisplay:10.37,2013-09-02 06:32:00,
2013-09-02 01:37:00,71.1,0.0,29.77,SSE,164,0.0,0.0,0,0.00,CLR,,0.00,WeatherDisplay:10.37,2013-09-02 06:37:00,
2013-09-02 01:42:00,71.0,0.0,29.77,SSE,164,0.0,0.0,0,0.00,CLR,,0.00,WeatherDisplay:10.37,2013-09-02 06:42:00,
2013-09-02 01:47:00,70.9,0.0,29.77,SSE,164,0.0,0.0,0,0.00,CLR,,0.00,WeatherDisplay:10.37,2013-09-02 06:47:00,
2013-09-02 01:52:00,70.9,0.0,29.77,SSE,164,0.0,0.0,0,0.00,CLR,,0.00,WeatherDisplay:10.37,2013-09-02 06:52:00,
2013-09-02 01:57:00,70.9,0.0,29.77,SSE,164,0.0,0.0,0,0.00,CLR,,0.00,WeatherDisplay:10.37,2013-09-02 06:57:00,
2013-09-02 02:02:00,70.9,0.0,29.77,SSE,164,0.0,0.0,0,0.00,CLR,,0.00,WeatherDisplay:10.37,2013-09-02 07:02:00,
2013-09-02 02:07:00,70.6,0.0,29.77,SSE,164,0.0,0.0,0,0.00,CLR,,0.00,WeatherDisplay:10.37,2013-09-02 07:07:00,
2013-09-02 02:12:00,70.7,0.0,29.77,SSE,164,0.0,0.0,0,0.00,CLR,,0.00,WeatherDisplay:10.37,2013-09-02 07:12:00,
2013-09-02 02:17:00,70.5,0.0,29.77,SSE,164,0.0,0.0,0,0.00,CLR,,0.00,WeatherDisplay:10.37,2013-09-02 07:17:00,
2013-09-02 02:22:00,70.5,0.0,29.78,SSE,164,0.0,0.0,0,0.00,CLR,,0.00,WeatherDisplay:10.37,2013-09-02 07:22:00,
2013-09-02 02:27:00,70.4,0.0,29.78,SSE,164,0.0,0.0,0,0.00,CLR,,0.00,WeatherDisplay:10.37,2013-09-02 07:27:00,
2013-09-02 02:32:00,70.3,0.0,29.78,SSE,164,0.0,0.0,0,0.00,CLR,,0.00,WeatherDisplay:10.37,2013-09-02 07:32:00,
2013-09-02 02:37:00,70.2,0.0,29.78,SSE,164,0.0,0.0,0,0.00,CLR,,0.00,WeatherDisplay:10.37,2013-09-02 07:37:00,
2013-09-02 02:42:00,70.2,0.0,29.78,SSE,164,0.0,0.0,0,0.00,CLR,,0.00,WeatherDisplay:10.37,2013-09-02 07:42:00,
2013-09-02 02:47:00,70.3,0.0,29.78,SSE,164,0.0,0.0,0,0.00,CLR,,0.00,WeatherDisplay:10.37,2013-09-02 07:47:00,
2013-09-02 02:52:00,70.1,0.0,29.78,SSE,164,0.0,0.0,0,0.00,CLR,,0.00,WeatherDisplay:10.37,2013-09-02 07:52:00,
2013-09-02 02:57:00,70.0,0.0,29.78,SSE,164,0.0,0.0,0,0.00,CLR,,0.00,WeatherDisplay:10.37,2013-09-02 07:57:00,
2013-09-02 03:02:00,70.0,0.0,29.78,SSE,164,0.0,0.0,0,0.00,CLR,,0.00,WeatherDisplay:10.37,2013-09-02 08:02:00,
2013-09-02 03:07:00,69.9,0.0,29.78,SSE,164,0.0,0.0,0,0.00,CLR,,0.00,WeatherDisplay:10.37,2013-09-02 08:07:00,
2013-09-02 03:12:00,70.0,0.0,29.78,SSE,164,0.0,0.0,0,0.00,CLR,,0.00,WeatherDisplay:10.37,2013-09-02 08:12:00,
2013-09-02 03:17:00,69.8,0.0,29.78,SSE,164,0.0,0.0,0,0.00,CLR,,0.00,WeatherDisplay:10.37,2013-09-02 08:17:00,
2013-09-02 03:22:00,69.8,0.0,29.78,SSE,164,0.0,0.0,0,0.00,CLR,,0.00,WeatherDisplay:10.37,2013-09-02 08:22:00,
2013-09-02 03:27:00,69.6,0.0,29.79,SSE,164,0.0,0.0,0,0.00,CLR,,0.00,WeatherDisplay:10.37,2013-09-02 08:27:00,
2013-09-02 03:32:00,69.6,0.0,29.79,SSE,164,0.0,0.0,0,0.00,CLR,,0.00,WeatherDisplay:10.37,2013-09-02 08:32:00,
2013-09-02 03:37:00,69.7,0.0,29.79,SSE,164,0.0,0.0,0,0.00,CLR,,0.00,WeatherDisplay:10.37,2013-09-02 08:37:00,
2013-09-02 03:42:00,69.5,0.0,29.78,SSE,164,0.0,0.0,0,0.00,CLR,,0.00,WeatherDisplay:10.37,2013-09-02 08:42:00,
2013-09-02 03:47:00,69.5,0.0,29.79,SSE,164,0.0,0.0,0,0.00,CLR,,0.00,WeatherDisplay:10.37,2013-09-02 08:47:00,
2013-09-02 03:52:00,69.5,0.0,29.78,SSE,164,0.0,0.0,0,0.00,CLR,,0.00,WeatherDisplay:10.37,2013-09-02 08:52:00,
2013-09-02 03:57:00,69.5,0.0,29.79,SSE,164,0.0,0.0,0,0.00,CLR,,0.00,WeatherDisplay:10.37,2013-09-02 08:57:00,
2013-09-02 04:02:00,69.4,0.0,29.79,SSE,164,0.0,0.0,0,0.00,CLR,,0.00,WeatherDisplay:10.37,2013-09-02 09:02:00,
2013-09-02 04:07:00,69.5,0.0,29.79,SSE,164,0.0,0.0,0,0.00,CLR,,0.00,WeatherDisplay:10.37,2013-09-02 09:07:00,
2013-09-02 04:12:00,69.5,0.0,29.79,SSE,164,0.0,0.0,0,0.00,CLR,,0.00,WeatherDisplay:10.37,2013-09-02 09:12:00,
2013-09-02 04:17:00,69.3,0.0,29.79,SSE,164,0.0,0.0,0,0.00,CLR,,0.00,WeatherDisplay:10.37,2013-09-02 09:17:00,
2013-09-02 04:22:00,69.4,0.0,29.79,SSE,164,0.0,0.0,0,0.00,CLR,,0.00,WeatherDisplay:10.37,2013-09-02 09:22:00,
2013-09-02 04:27:00,69.3,0.0,29.79,SSE,164,0.0,0.0,0,0.00,CLR,,0.00,WeatherDisplay:10.37,2013-09-02 09:27:00,
2013-09-02 04:32:00,69.2,0.0,29.79,SSE,164,0.0,0.0,0,0.00,CLR,,0.00,WeatherDisplay:10.37,2013-09-02 09:32:00,
2013-09-02 04:37:00,68.8,0.0,29.80,SSE,164,0.0,0.0,0,0.00,CLR,,0.00,WeatherDisplay:10.37,2013-09-02 09:37:00,
2013-09-02 04:42:00,68.7,0.0,29.80,SSE,164,0.0,0.0,0,0.00,CLR,,0.00,WeatherDisplay:10.37,2013-09-02 09:42:00,
2013-09-02 04:47:00,68.4,0.0,29.80,SSE,164,3.5,3.5,0,0.00,CLR,,0.00,WeatherDisplay:10.37,2013-09-02 09:47:00,
2013-09-02 04:52:00,68.3,0.0,29.80,SSE,164,0.0,0.0,0,0.00,CLR,,0.00,WeatherDisplay:10.37,2013-09-02 09:52:00,
2013-09-02 04:57:00,68.2,0.0,29.80,SSE,164,0.0,0.0,0,0.00,CLR,,0.00,WeatherDisplay:10.37,2013-09-02 09:57:00,
2013-09-02 05:02:00,68.2,0.0,29.80,WNW,299,0.0,0.0,0,0.00,CLR,,0.00,WeatherDisplay:10.37,2013-09-02 10:02:00,
2013-09-02 05:07:00,68.1,0.0,29.80,WNW,299,0.0,0.0,0,0.00,CLR,,0.00,WeatherDisplay:10.37,2013-09-02 10:07:00,
2013-09-02 05:12:00,68.1,0.0,29.81,WNW,299,0.0,0.0,0,0.00,CLR,,0.00,WeatherDisplay:10.37,2013-09-02 10:12:00,
2013-09-02 05:17:00,67.9,0.0,29.81,WNW,299,0.0,0.0,0,0.00,CLR,,0.00,WeatherDisplay:10.37,2013-09-02 10:17:00,
2013-09-02 05:22:00,67.8,0.0,29.81,WNW,299,0.0,0.0,0,0.00,CLR,,0.00,WeatherDisplay:10.37,2013-09-02 10:22:00,
2013-09-02 05:27:00,67.7,0.0,29.81,WNW,299,0.0,0.0,0,0.00,CLR,,0.00,WeatherDisplay:10.37,2013-09-02 10:27:00,
2013-09-02 05:32:00,67.7,0.0,29.81,WNW,299,0.0,0.0,0,0.00,CLR,,0.00,WeatherDisplay:10.37,2013-09-02 10:32:00,
2013-09-02 05:37:00,67.3,0.0,29.81,WNW,299,0.0,0.0,0,0.00,CLR,,0.00,WeatherDisplay:10.37,2013-09-02 10:37:00,
2013-09-02 05:42:00,67.3,0.0,29.81,WNW,299,0.0,0.0,0,0.00,CLR,,0.00,WeatherDisplay:10.37,2013-09-02 10:42:00,
2013-09-02 05:47:00,67.3,0.0,29.81,WNW,299,0.0,0.0,0,0.00,CLR,,0.00,WeatherDisplay:10.37,2013-09-02 10:47:00,
2013-09-02 05:52:00,67.1,0.0,29.81,WNW,299,0.0,0.0,0,0.00,CLR,,0.00,WeatherDisplay:10.37,2013-09-02 10:52:00,
2013-09-02 05:57:00,67.0,0.0,29.82,WNW,299,0.0,0.0,0,0.00,CLR,,0.00,WeatherDisplay:10.37,2013-09-02 10:57:00,
2013-09-02 06:02:00,67.0,0.0,29.82,WNW,299,0.0,0.0,0,0.00,CLR,,0.00,WeatherDisplay:10.37,2013-09-02 11:02:00,
2013-09-02 06:07:00,66.9,0.0,29.82,WNW,299,0.0,0.0,0,0.00,CLR,,0.00,WeatherDisplay:10.37,2013-09-02 11:07:00,
2013-09-02 06:12:00,66.7,0.0,29.82,WNW,299,0.0,0.0,0,0.00,CLR,,0.00,WeatherDisplay:10.37,2013-09-02 11:12:00,
2013-09-02 06:17:00,66.5,0.0,29.82,WNW,299,0.0,0.0,0,0.00,CLR,,0.00,WeatherDisplay:10.37,2013-09-02 11:17:00,
2013-09-02 06:22:00,66.4,0.0,29.83,NW,322,2.3,0.0,0,0.00,CLR,,0.00,WeatherDisplay:10.37,2013-09-02 11:22:00,
2013-09-02 06:27:00,66.2,0.0,29.83,NW,322,0.0,0.0,0,0.00,CLR,,0.00,WeatherDisplay:10.37,2013-09-02 11:27:00,
2013-09-02 06:32:00,66.1,0.0,29.83,NW,322,0.0,0.0,0,0.00,CLR,,0.00,WeatherDisplay:10.37,2013-09-02 11:32:00,
2013-09-02 06:37:00,66.0,0.0,29.83,NW,322,0.0,0.0,0,0.00,CLR,,0.00,WeatherDisplay:10.37,2013-09-02 11:37:00,
2013-09-02 06:42:00,65.9,0.0,29.84,NW,322,0.0,0.0,0,0.00,CLR,,0.00,WeatherDisplay:10.37,2013-09-02 11:42:00,
2013-09-02 06:47:00,66.0,0.0,29.84,NNE,17,0.0,0.0,0,0.00,CLR,,0.00,WeatherDisplay:10.37,2013-09-02 11:47:00,
2013-09-02 06:52:00,66.4,0.0,29.84,NNE,17,0.0,0.0,0,0.00,CLR,,0.00,WeatherDisplay:10.37,2013-09-02 11:52:00,
2013-09-02 06:57:00,66.6,0.0,29.84,NNE,17,0.0,0.0,0,0.00,CLR,,0.00,WeatherDisplay:10.37,2013-09-02 11:57:00,
2013-09-02 07:02:00,66.7,0.0,29.84,NNW,335,0.0,0.0,0,0.00,CLR,,0.00,WeatherDisplay:10.37,2013-09-02 12:02:00,
2013-09-02 07:07:00,66.6,0.0,29.84,NNW,335,0.0,0.0,0,0.00,CLR,,0.00,WeatherDisplay:10.37,2013-09-02 12:07:00,
2013-09-02 07:12:00,66.6,0.0,29.84,North,349,3.5,3.5,0,0.00,CLR,,0.00,WeatherDisplay:10.37,2013-09-02 12:12:00,
2013-09-02 07:17:00,66.4,0.0,29.84,North,0,0.0,0.0,0,0.00,CLR,,0.00,WeatherDisplay:10.37,2013-09-02 12:17:00,
2013-09-02 07:22:00,66.4,0.0,29.84,North,0,0.0,0.0,0,0.00,CLR,,0.00,WeatherDisplay:10.37,2013-09-02 12:22:00,
2013-09-02 07:27:00,66.9,0.0,29.84,North,0,0.0,0.0,0,0.00,CLR,,0.00,WeatherDisplay:10.37,2013-09-02 12:27:00,
2013-09-02 07:32:00,67.1,0.0,29.84,North,0,0.0,0.0,0,0.00,CLR,,0.00,WeatherDisplay:10.37,2013-09-02 12:32:00,
2013-09-02 07:37:00,67.1,0.0,29.85,North,0,0.0,0.0,0,0.00,CLR,,0.00,WeatherDisplay:10.37,2013-09-02 12:37:00,
2013-09-02 07:42:00,66.9,0.0,29.85,North,0,0.0,0.0,0,0.00,CLR,,0.00,WeatherDisplay:10.37,2013-09-02 12:42:00,
2013-09-02 07:47:00,67.0,0.0,29.85,North,0,0.0,0.0,0,0.00,CLR,,0.00,WeatherDisplay:10.37,2013-09-02 12:47:00,
2013-09-02 07:52:00,67.1,0.0,29.85,North,0,0.0,0.0,0,0.00,CLR,,0.00,WeatherDisplay:10.37,2013-09-02 12:52:00,
2013-09-02 07:57:00,67.4,0.0,29.85,North,0,0.0,0.0,0,0.00,CLR,,0.00,WeatherDisplay:10.37,2013-09-02 12:57:00,
2013-09-02 08:02:00,67.7,0.0,29.85,North,0,0.0,0.0,0,0.00,CLR,,0.00,WeatherDisplay:10.37,2013-09-02 13:02:00,
2013-09-02 08:07:00,67.8,0.0,29.85,North,0,0.0,0.0,0,0.00,CLR,,0.00,WeatherDisplay:10.37,2013-09-02 13:07:00,
2013-09-02 08:12:00,68.1,0.0,29.85,North,0,0.0,0.0,0,0.00,CLR,,0.00,WeatherDisplay:10.37,2013-09-02 13:12:00,
2013-09-02 08:17:00,68.3,0.0,29.86,North,0,0.0,0.0,0,0.00,CLR,,0.00,WeatherDisplay:10.37,2013-09-02 13:17:00,
2013-09-02 08:22:00,68.4,0.0,29.85,North,0,0.0,0.0,0,0.00,CLR,,0.00,WeatherDisplay:10.37,2013-09-02 13:22:00,
2013-09-02 08:27:00,68.8,0.0,29.86,North,0,0.0,0.0,0,0.00,CLR,,0.00,WeatherDisplay:10.37,2013-09-02 13:27:00,
2013-09-02 08:32:00,68.9,0.0,29.86,North,0,0.0,0.0,0,0.00,CLR,,0.00,WeatherDisplay:10.37,2013-09-02 13:32:00,
2013-09-02 08:37:00,69.3,0.0,29.86,North,0,0.0,0.0,0,0.00,CLR,,0.00,WeatherDisplay:10.37,2013-09-02 13:37:00,
2013-09-02 08:42:00,69.4,0.0,29.86,North,0,0.0,0.0,0,0.00,CLR,,0.00,WeatherDisplay:10.37,2013-09-02 13:42:00,
2013-09-02 08:47:00,69.7,0.0,29.86,North,7,5.8,5.8,0,0.00,CLR,,0.00,WeatherDisplay:10.37,2013-09-02 13:47:00,
2013-09-02 08:52:00,70.0,0.0,29.86,North,360,0.0,0.0,0,0.00,CLR,,0.00,WeatherDisplay:10.37,2013-09-02 13:52:00,
2013-09-02 08:57:00,70.3,0.0,29.87,NNE,16,0.0,0.0,0,0.00,CLR,,0.00,WeatherDisplay:10.37,2013-09-02 13:57:00,
2013-09-02 09:02:00,70.6,0.0,29.87,NNW,335,2.3,2.3,0,0.00,CLR,,0.00,WeatherDisplay:10.37,2013-09-02 14:02:00,
2013-09-02 09:07:00,70.9,0.0,29.87,NNW,335,0.0,0.0,0,0.00,CLR,,0.00,WeatherDisplay:10.37,2013-09-02 14:07:00,
2013-09-02 09:12:00,71.5,0.0,29.87,NNW,333,0.0,0.0,0,0.00,CLR,,0.00,WeatherDisplay:10.37,2013-09-02 14:12:00,
2013-09-02 09:17:00,72.2,0.0,29.88,North,11,4.6,4.6,0,0.00,CLR,,0.00,WeatherDisplay:10.37,2013-09-02 14:17:00,
2013-09-02 09:22:00,72.0,0.0,29.88,NNE,13,0.0,0.0,0,0.00,CLR,,0.00,WeatherDisplay:10.37,2013-09-02 14:22:00,
2013-09-02 09:27:00,72.0,0.0,29.88,North,1,3.5,3.5,0,0.00,CLR,,0.00,WeatherDisplay:10.37,2013-09-02 14:27:00,
2013-09-02 09:32:00,72.3,0.0,29.88,NNW,329,0.0,0.0,0,0.00,CLR,,0.00,WeatherDisplay:10.37,2013-09-02 14:32:00,
2013-09-02 09:37:00,72.4,0.0,29.88,North,350,9.2,9.2,0,0.00,CLR,,0.00,WeatherDisplay:10.37,2013-09-02 14:37:00,
2013-09-02 09:42:00,72.6,0.0,29.88,North,350,4.6,4.6,0,0.00,CLR,,0.00,WeatherDisplay:10.37,2013-09-02 14:42:00,
2013-09-02 09:47:00,73.1,0.0,29.88,North,360,8.1,8.1,0,0.00,CLR,,0.00,WeatherDisplay:10.37,2013-09-02 14:47:00,
2013-09-02 09:52:00,73.6,0.0,29.88,NNW,329,6.9,0.0,0,0.00,CLR,,0.00,WeatherDisplay:10.37,2013-09-02 14:52:00,
2013-09-02 09:57:00,74.0,0.0,29.88,NW,320,3.5,3.5,0,0.00,CLR,,0.00,WeatherDisplay:10.37,2013-09-02 14:57:00,
2013-09-02 10:02:00,74.0,0.0,29.89,NNW,328,5.8,5.8,0,0.00,CLR,,0.00,WeatherDisplay:10.37,2013-09-02 15:02:00,
2013-09-02 10:07:00,74.3,0.0,29.88,NNW,328,0.0,0.0,0,0.00,CLR,,0.00,WeatherDisplay:10.37,2013-09-02 15:07:00,
2013-09-02 10:12:00,74.6,0.0,29.89,NNW,328,0.0,0.0,0,0.00,CLR,,0.00,WeatherDisplay:10.37,2013-09-02 15:12:00,
2013-09-02 10:17:00,75.1,0.0,29.88,NNW,328,0.0,0.0,0,0.00,CLR,,0.00,WeatherDisplay:10.37,2013-09-02 15:17:00,
2013-09-02 10:22:00,75.5,0.0,29.89,NNW,335,5.8,5.8,0,0.00,CLR,,0.00,WeatherDisplay:10.37,2013-09-02 15:22:00,
2013-09-02 10:27:00,75.7,0.0,29.89,NNW,346,6.9,6.9,0,0.00,CLR,,0.00,WeatherDisplay:10.37,2013-09-02 15:27:00,
2013-09-02 10:32:00,77.1,0.0,29.89,NW,325,0.0,0.0,0,0.00,CLR,,0.00,WeatherDisplay:10.37,2013-09-02 15:32:00,
2013-09-02 10:37:00,79.8,0.0,29.89,NNW,343,0.0,0.0,0,0.00,CLR,,0.00,WeatherDisplay:10.37,2013-09-02 15:37:00,
2013-09-02 10:42:00,81.2,0.0,29.89,NNW,336,0.0,0.0,0,0.00,CLR,,0.00,WeatherDisplay:10.37,2013-09-02 15:42:00,
2013-09-02 10:47:00,82.5,0.0,29.89,NNW,336,0.0,0.0,0,0.00,CLR,,0.00,WeatherDisplay:10.37,2013-09-02 15:47:00,
2013-09-02 10:52:00,83.6,0.0,29.89,NNW,339,4.6,4.6,0,0.00,CLR,,0.00,WeatherDisplay:10.37,2013-09-02 15:52:00,
2013-09-02 10:57:00,84.6,0.0,29.89,NNW,339,0.0,0.0,0,0.00,CLR,,0.00,WeatherDisplay:10.37,2013-09-02 15:57:00,
2013-09-02 11:02:00,83.7,0.0,29.89,NNW,339,10.4,10.4,0,0.00,CLR,,0.00,WeatherDisplay:10.37,2013-09-02 16:02:00,
2013-09-02 11:07:00,84.1,0.0,29.89,NW,315,6.9,6.9,0,0.00,CLR,,0.00,WeatherDisplay:10.37,2013-09-02 16:07:00,
2013-09-02 11:12:00,83.7,0.0,29.89,North,360,8.1,8.1,0,0.00,CLR,,0.00,WeatherDisplay:10.37,2013-09-02 16:12:00,
2013-09-02 11:17:00,84.4,0.0,29.89,North,8,5.8,5.8,0,0.00,CLR,,0.00,WeatherDisplay:10.37,2013-09-02 16:17:00,
2013-09-02 11:22:00,86.1,0.0,29.89,North,8,0.0,0.0,0,0.00,CLR,,0.00,WeatherDisplay:10.37,2013-09-02 16:22:00,
2013-09-02 11:27:00,86.1,0.0,29.89,NNE,16,0.0,0.0,0,0.00,CLR,,0.00,WeatherDisplay:10.37,2013-09-02 16:27:00,
2013-09-02 11:32:00,86.0,0.0,29.89,West,263,0.0,0.0,0,0.00,CLR,,0.00,WeatherDisplay:10.37,2013-09-02 16:32:00,
2013-09-02 11:37:00,86.1,0.0,29.89,North,360,5.8,5.8,0,0.00,CLR,,0.00,WeatherDisplay:10.37,2013-09-02 16:37:00,
2013-09-02 11:42:00,86.6,0.0,29.89,North,360,0.0,0.0,0,0.00,CLR,,0.00,WeatherDisplay:10.37,2013-09-02 16:42:00,
2013-09-02 11:47:00,82.9,0.0,29.89,NW,319,0.0,0.0,0,0.00,CLR,,0.00,WeatherDisplay:10.37,2013-09-02 16:47:00,
2013-09-02 11:52:00,85.7,0.0,29.89,NNW,329,7.0,7.0,0,0.00,CLR,,0.00,WeatherDisplay:10.37,2013-09-02 16:52:00,
2013-09-02 11:57:00,87.5,0.0,29.89,North,360,0.0,0.0,0,0.00,CLR,,0.00,WeatherDisplay:10.37,2013-09-02 16:57:00,
2013-09-02 12:02:00,85.9,0.0,29.89,North,360,0.0,0.0,0,0.00,CLR,,0.00,WeatherDisplay:10.37,2013-09-02 17:02:00,
2013-09-02 12:07:00,83.5,0.0,29.89,North,360,0.0,0.0,0,0.00,CLR,,0.00,WeatherDisplay:10.37,2013-09-02 17:07:00,
2013-09-02 12:12:00,86.3,0.0,29.89,North,360,0.0,0.5,0,0.00,CLR,,0.00,WeatherDisplay:10.37,2013-09-02 17:12:00,
2013-09-02 12:17:00,86.6,0.0,29.89,WNW,294,0.0,0.0,0,0.00,CLR,,0.00,WeatherDisplay:10.37,2013-09-02 17:17:00,
2013-09-02 12:22:00,84.3,0.0,29.89,NNW,330,4.6,4.6,0,0.00,CLR,,0.00,WeatherDisplay:10.37,2013-09-02 17:22:00,
2013-09-02 12:27:00,83.9,0.0,29.89,NNW,336,6.4,6.4,0,0.00,CLR,,0.00,WeatherDisplay:10.37,2013-09-02 17:27:00,
2013-09-02 12:32:00,84.7,0.0,29.89,North,360,0.0,0.0,0,0.00,CLR,,0.00,WeatherDisplay:10.37,2013-09-02 17:32:00,
2013-09-02 12:37:00,85.5,0.0,29.89,North,350,7.0,7.0,0,0.00,CLR,,0.00,WeatherDisplay:10.37,2013-09-02 17:37:00,
2013-09-02 12:42:00,83.7,0.0,29.89,NNW,346,10.4,10.4,0,0.00,CLR,,0.00,WeatherDisplay:10.37,2013-09-02 17:42:00,
2013-09-02 12:47:00,83.7,0.0,29.89,NNE,14,0.0,0.0,0,0.00,CLR,,0.00,WeatherDisplay:10.37,2013-09-02 17:47:00,
2013-09-02 12:52:00,84.1,0.0,29.88,NNW,343,0.0,0.0,0,0.00,CLR,,0.00,WeatherDisplay:10.37,2013-09-02 17:52:00,
2013-09-02 12:57:00,84.8,0.0,29.89,NNW,342,0.0,0.0,0,0.00,CLR,,0.00,WeatherDisplay:10.37,2013-09-02 17:57:00,
2013-09-02 13:02:00,84.5,0.0,29.89,NNW,343,9.2,9.2,0,0.00,CLR,,0.00,WeatherDisplay:10.37,2013-09-02 18:02:00,
2013-09-02 13:07:00,84.0,0.0,29.89,North,6,0.0,0.0,0,0.00,CLR,,0.00,WeatherDisplay:10.37,2013-09-02 18:07:00,
2013-09-02 13:12:00,84.2,0.0,29.88,North,6,0.0,0.0,0,0.00,CLR,,0.00,WeatherDisplay:10.37,2013-09-02 18:12:00,
2013-09-02 13:17:00,83.7,0.0,29.88,NW,306,4.6,0.0,0,0.00,CLR,,0.00,WeatherDisplay:10.37,2013-09-02 18:17:00,
2013-09-02 13:22:00,82.8,0.0,29.88,NW,306,0.0,0.0,0,0.00,CLR,,0.00,WeatherDisplay:10.37,2013-09-02 18:22:00,
2013-09-02 13:27:00,83.5,0.0,29.88,NNE,24,3.3,3.3,0,0.00,CLR,,0.00,WeatherDisplay:10.37,2013-09-02 18:27:00,
2013-09-02 13:32:00,84.2,0.0,29.88,North,4,3.5,3.5,0,0.00,CLR,,0.00,WeatherDisplay:10.37,2013-09-02 18:32:00,
2013-09-02 13:37:00,84.4,0.0,29.88,NW,308,4.6,0.0,0,0.00,CLR,,0.00,WeatherDisplay:10.37,2013-09-02 18:37:00,
2013-09-02 13:42:00,83.1,0.0,29.87,WSW,237,2.3,2.3,0,0.00,CLR,,0.00,WeatherDisplay:10.37,2013-09-02 18:42:00,
2013-09-02 13:47:00,83.4,0.0,29.88,North,360,3.5,3.5,0,0.00,CLR,,0.00,WeatherDisplay:10.37,2013-09-02 18:47:00,
2013-09-02 13:52:00,84.5,0.0,29.88,North,360,0.0,0.0,0,0.00,CLR,,0.00,WeatherDisplay:10.37,2013-09-02 18:52:00,
2013-09-02 13:57:00,83.8,0.0,29.88,WNW,282,6.9,6.9,0,0.00,CLR,,0.00,WeatherDisplay:10.37,2013-09-02 18:57:00,
2013-09-02 14:02:00,84.4,0.0,29.87,NNW,328,4.6,4.6,0,0.00,CLR,,0.00,WeatherDisplay:10.37,2013-09-02 19:02:00,
2013-09-02 14:07:00,83.6,0.0,29.87,NW,309,0.0,0.0,0,0.00,CLR,,0.00,WeatherDisplay:10.37,2013-09-02 19:07:00,
2013-09-02 14:12:00,82.2,0.0,29.87,NNE,30,0.0,0.0,0,0.00,CLR,,0.00,WeatherDisplay:10.37,2013-09-02 19:12:00,
2013-09-02 14:17:00,83.3,0.0,29.87,NNE,20,6.9,6.9,0,0.00,CLR,,0.00,WeatherDisplay:10.37,2013-09-02 19:17:00,
2013-09-02 14:22:00,83.9,0.0,29.87,North,360,4.9,4.9,0,0.00,CLR,,0.00,WeatherDisplay:10.37,2013-09-02 19:22:00,
2013-09-02 14:27:00,84.0,0.0,29.87,NW,326,8.1,8.1,0,0.00,CLR,,0.00,WeatherDisplay:10.37,2013-09-02 19:27:00,
2013-09-02 14:32:00,84.1,0.0,29.87,NNE,31,5.8,5.8,0,0.00,CLR,,0.00,WeatherDisplay:10.37,2013-09-02 19:32:00,
2013-09-02 14:37:00,83.4,0.0,29.86,WSW,251,3.5,0.0,0,0.00,CLR,,0.00,WeatherDisplay:10.37,2013-09-02 19:37:00,
2013-09-02 14:42:00,82.5,0.0,29.87,ENE,66,7.6,7.6,0,0.00,CLR,,0.00,WeatherDisplay:10.37,2013-09-02 19:42:00,
2013-09-02 14:48:00,83.2,0.0,29.87,NNW,328,1.2,0.0,0,0.00,CLR,,0.00,WeatherDisplay:10.37,2013-09-02 19:48:00,
2013-09-02 14:53:00,83.9,0.0,29.87,NE,42,4.4,4.4,0,0.00,CLR,,0.00,WeatherDisplay:10.37,2013-09-02 19:53:00,
2013-09-02 14:58:00,83.7,0.0,29.87,NNW,335,5.8,5.8,0,0.00,CLR,,0.00,WeatherDisplay:10.37,2013-09-02 19:58:00,
2013-09-02 15:03:00,83.9,0.0,29.87,North,349,8.2,8.2,0,0.00,CLR,,0.00,WeatherDisplay:10.37,2013-09-02 20:03:00,
2013-09-02 15:08:00,83.7,0.0,29.86,NNE,13,0.0,0.0,0,0.00,CLR,,0.00,WeatherDisplay:10.37,2013-09-02 20:08:00,
2013-09-02 15:13:00,84.6,0.0,29.87,WNW,302,5.8,5.8,0,0.00,CLR,,0.00,WeatherDisplay:10.37,2013-09-02 20:13:00,
2013-09-02 15:18:00,83.9,0.0,29.86,NNW,344,0.0,2.5,0,0.00,CLR,,0.00,WeatherDisplay:10.37,2013-09-02 20:18:00,
2013-09-02 15:23:00,83.3,0.0,29.87,North,360,10.4,10.4,0,0.00,CLR,,0.00,WeatherDisplay:10.37,2013-09-02 20:23:00,
2013-09-02 15:28:00,83.0,0.0,29.86,NNW,335,8.1,8.1,0,0.00,CLR,,0.00,WeatherDisplay:10.37,2013-09-02 20:28:00,
2013-09-02 15:33:00,83.6,0.0,29.87,North,360,0.0,3.4,0,0.00,CLR,,0.00,WeatherDisplay:10.37,2013-09-02 20:33:00,
2013-09-02 15:38:00,83.4,0.0,29.86,NNW,339,6.9,0.0,0,0.00,CLR,,0.00,WeatherDisplay:10.37,2013-09-02 20:38:00,
2013-09-02 15:43:00,83.9,0.0,29.86,WSW,253,3.5,0.0,0,0.00,CLR,,0.00,WeatherDisplay:10.37,2013-09-02 20:43:00,
2013-09-02 15:48:00,83.9,0.0,29.86,North,349,3.5,3.5,0,0.00,CLR,,0.00,WeatherDisplay:10.37,2013-09-02 20:48:00,
2013-09-02 15:53:00,82.4,0.0,29.86,North,0,10.4,10.4,0,0.00,CLR,,0.00,WeatherDisplay:10.37,2013-09-02 20:53:00,
2013-09-02 15:58:00,81.7,0.0,29.86,North,3,8.1,8.1,0,0.00,CLR,,0.00,WeatherDisplay:10.37,2013-09-02 20:58:00,
2013-09-02 16:03:00,82.4,0.0,29.86,NNE,14,9.2,9.2,0,0.00,CLR,,0.00,WeatherDisplay:10.37,2013-09-02 21:03:00,
2013-09-02 16:08:00,82.8,0.0,29.86,North,4,0.0,0.0,0,0.00,CLR,,0.00,WeatherDisplay:10.37,2013-09-02 21:08:00,
2013-09-02 16:13:00,82.9,0.0,29.86,NNW,332,6.9,0.0,0,0.00,CLR,,0.00,WeatherDisplay:10.37,2013-09-02 21:13:00,
2013-09-02 16:18:00,83.1,0.0,29.86,North,353,5.8,5.8,0,0.00,CLR,,0.00,WeatherDisplay:10.37,2013-09-02 21:18:00,
2013-09-02 16:23:00,83.3,0.0,29.86,WSW,257,4.6,4.6,0,0.00,CLR,,0.00,WeatherDisplay:10.37,2013-09-02 21:23:00,
2013-09-02 16:28:00,82.9,0.0,29.86,NNE,18,8.1,8.1,0,0.00,CLR,,0.00,WeatherDisplay:10.37,2013-09-02 21:28:00,
2013-09-02 16:33:00,82.9,0.0,29.86,NNW,332,5.8,5.8,0,0.00,CLR,,0.00,WeatherDisplay:10.37,2013-09-02 21:33:00,
2013-09-02 16:38:00,82.8,0.0,29.86,NNE,32,5.8,5.8,0,0.00,CLR,,0.00,WeatherDisplay:10.37,2013-09-02 21:38:00,
2013-09-02 16:43:00,82.8,0.0,29.86,NNE,27,4.6,4.6,0,0.00,CLR,,0.00,WeatherDisplay:10.37,2013-09-02 21:43:00,
2013-09-02 16:48:00,82.4,0.0,29.86,North,6,0.0,0.7,0,0.00,CLR,,0.00,WeatherDisplay:10.37,2013-09-02 21:48:00,
2013-09-02 16:53:00,82.4,0.0,29.86,WNW,289,8.1,8.1,0,0.00,CLR,,0.00,WeatherDisplay:10.37,2013-09-02 21:53:00,
2013-09-02 16:58:00,82.7,0.0,29.85,WNW,289,0.0,0.0,0,0.00,CLR,,0.00,WeatherDisplay:10.37,2013-09-02 21:58:00,
2013-09-02 17:03:00,82.8,0.0,29.86,NNW,343,0.0,0.0,0,0.00,CLR,,0.00,WeatherDisplay:10.37,2013-09-02 22:03:00,
2013-09-02 17:08:00,82.5,0.0,29.86,North,8,5.8,5.8,0,0.00,CLR,,0.00,WeatherDisplay:10.37,2013-09-02 22:08:00,
2013-09-02 17:13:00,82.0,0.0,29.86,NNW,337,5.8,5.8,0,0.00,CLR,,0.00,WeatherDisplay:10.37,2013-09-02 22:13:00,
2013-09-02 17:18:00,82.2,0.0,29.86,North,4,0.0,0.0,0,0.00,CLR,,0.00,WeatherDisplay:10.37,2013-09-02 22:18:00,
2013-09-02 17:23:00,81.9,0.0,29.86,NW,305,0.0,0.0,0,0.00,CLR,,0.00,WeatherDisplay:10.37,2013-09-02 22:23:00,
2013-09-02 17:28:00,81.9,0.0,29.86,NNE,23,5.8,5.8,0,0.00,CLR,,0.00,WeatherDisplay:10.37,2013-09-02 22:28:00,
2013-09-02 17:33:00,81.9,0.0,29.85,West,267,3.5,0.0,0,0.00,CLR,,0.00,WeatherDisplay:10.37,2013-09-02 22:33:00,
2013-09-02 17:38:00,81.6,0.0,29.86,West,267,0.0,0.0,0,0.00,CLR,,0.00,WeatherDisplay:10.37,2013-09-02 22:38:00,
2013-09-02 17:43:00,81.4,0.0,29.85,NNW,344,0.0,0.0,0,0.00,CLR,,0.00,WeatherDisplay:10.37,2013-09-02 22:43:00,
2013-09-02 17:48:00,81.1,0.0,29.85,NNW,346,2.3,0.0,0,0.00,CLR,,0.00,WeatherDisplay:10.37,2013-09-02 22:48:00,
2013-09-02 17:53:00,80.6,0.0,29.86,NW,323,4.6,0.0,0,0.00,CLR,,0.00,WeatherDisplay:10.37,2013-09-02 22:53:00,
2013-09-02 17:58:00,80.6,0.0,29.86,North,0,0.0,0.0,0,0.00,CLR,,0.00,WeatherDisplay:10.37,2013-09-02 22:58:00,
2013-09-02 18:03:00,80.5,0.0,29.86,NW,304,3.3,3.3,0,0.00,CLR,,0.00,WeatherDisplay:10.37,2013-09-02 23:03:00,
2013-09-02 18:08:00,80.2,0.0,29.86,NNW,344,6.9,6.9,0,0.00,CLR,,0.00,WeatherDisplay:10.37,2013-09-02 23:08:00,
2013-09-02 18:13:00,79.8,0.0,29.86,NNW,342,5.8,5.8,0,0.00,CLR,,0.00,WeatherDisplay:10.37,2013-09-02 23:13:00,
2013-09-02 18:18:00,79.7,0.0,29.86,NNE,13,0.0,0.0,0,0.00,CLR,,0.00,WeatherDisplay:10.37,2013-09-02 23:18:00,
2013-09-02 18:23:00,79.3,0.0,29.86,NNW,346,0.0,0.0,0,0.00,CLR,,0.00,WeatherDisplay:10.37,2013-09-02 23:23:00,
2013-09-02 18:28:00,79.2,0.0,29.86,NW,312,0.0,2.3,0,0.00,CLR,,0.00,WeatherDisplay:10.37,2013-09-02 23:28:00,
2013-09-02 18:33:00,79.0,0.0,29.86,NW,312,0.0,0.0,0,0.00,CLR,,0.00,WeatherDisplay:10.37,2013-09-02 23:33:00,
2013-09-02 18:38:00,78.8,0.0,29.86,NNW,328,8.1,8.1,0,0.00,CLR,,0.00,WeatherDisplay:10.37,2013-09-02 23:38:00,
2013-09-02 18:43:00,78.5,0.0,29.86,NNW,346,1.2,0.0,0,0.00,CLR,,0.00,WeatherDisplay:10.37,2013-09-02 23:43:00,
2013-09-02 18:48:00,78.3,0.0,29.86,NNW,344,4.6,0.0,0,0.00,CLR,,0.00,WeatherDisplay:10.37,2013-09-02 23:48:00,
2013-09-02 18:53:00,78.1,0.0,29.86,NNW,344,0.0,0.0,0,0.00,CLR,,0.00,WeatherDisplay:10.37,2013-09-02 23:53:00,
2013-09-02 18:58:00,77.7,0.0,29.86,North,354,5.8,5.8,0,0.00,CLR,,0.00,WeatherDisplay:10.37,2013-09-02 23:58:00,
2013-09-02 19:03:00,77.3,0.0,29.86,North,354,0.0,0.0,0,0.00,CLR,,0.00,WeatherDisplay:10.37,2013-09-03 00:03:00,
2013-09-02 19:08:00,76.9,0.0,29.86,North,4,4.3,4.3,0,0.00,CLR,,0.00,WeatherDisplay:10.37,2013-09-03 00:08:00,
2013-09-02 19:13:00,76.6,0.0,29.86,NNE,20,0.0,0.3,0,0.00,CLR,,0.00,WeatherDisplay:10.37,2013-09-03 00:13:00,
2013-09-02 19:18:00,76.1,0.0,29.86,NNE,20,0.0,0.0,0,0.00,CLR,,0.00,WeatherDisplay:10.37,2013-09-03 00:18:00,
2013-09-02 19:23:00,75.9,0.0,29.87,NNE,20,0.0,0.0,0,0.00,CLR,,0.00,WeatherDisplay:10.37,2013-09-03 00:23:00,
2013-09-02 19:28:00,75.6,0.0,29.87,NNE,20,0.0,0.0,0,0.00,CLR,,0.00,WeatherDisplay:10.37,2013-09-03 00:28:00,
2013-09-02 19:33:00,75.4,0.0,29.87,NNE,20,0.0,0.0,0,0.00,CLR,,0.00,WeatherDisplay:10.37,2013-09-03 00:33:00,
2013-09-02 19:38:00,75.0,0.0,29.87,NNE,20,0.0,0.0,0,0.00,CLR,,0.00,WeatherDisplay:10.37,2013-09-03 00:38:00,
2013-09-02 19:43:00,74.7,0.0,29.87,NNE,20,0.0,0.0,0,0.00,CLR,,0.00,WeatherDisplay:10.37,2013-09-03 00:43:00,
2013-09-02 19:48:00,74.5,0.0,29.87,North,4,3.5,0.0,0,0.00,CLR,,0.00,WeatherDisplay:10.37,2013-09-03 00:48:00,
2013-09-02 19:53:00,74.2,0.0,29.88,North,360,0.0,0.0,0,0.00,CLR,,0.00,WeatherDisplay:10.37,2013-09-03 00:53:00,
2013-09-02 19:58:00,74.2,0.0,29.88,North,360,0.0,0.0,0,0.00,CLR,,0.00,WeatherDisplay:10.37,2013-09-03 00:58:00,
2013-09-02 20:03:00,73.9,0.0,29.88,North,350,4.2,4.7,0,0.00,CLR,,0.00,WeatherDisplay:10.37,2013-09-03 01:03:00,
2013-09-02 20:08:00,73.8,0.0,29.88,North,356,0.0,0.0,0,0.00,CLR,,0.00,WeatherDisplay:10.37,2013-09-03 01:08:00,
2013-09-02 20:13:00,73.5,0.0,29.88,North,354,10.0,10.0,0,0.00,CLR,,0.00,WeatherDisplay:10.37,2013-09-03 01:13:00,
2013-09-02 20:18:00,73.2,0.0,29.89,North,1,2.9,2.9,0,0.00,CLR,,0.00,WeatherDisplay:10.37,2013-09-03 01:18:00,
2013-09-02 20:23:00,73.0,0.0,29.89,NNW,344,0.0,0.0,0,0.00,CLR,,0.00,WeatherDisplay:10.37,2013-09-03 01:23:00,
2013-09-02 20:28:00,72.9,0.0,29.89,North,4,0.0,0.0,0,0.00,CLR,,0.00,WeatherDisplay:10.37,2013-09-03 01:28:00,
2013-09-02 20:33:00,72.6,0.0,29.89,North,4,0.0,0.0,0,0.00,CLR,,0.00,WeatherDisplay:10.37,2013-09-03 01:33:00,
2013-09-02 20:38:00,72.5,0.0,29.89,NNW,347,4.6,4.6,0,0.00,CLR,,0.00,WeatherDisplay:10.37,2013-09-03 01:38:00,
2013-09-02 20:43:00,72.1,0.0,29.90,NNW,335,4.6,4.6,0,0.00,CLR,,0.00,WeatherDisplay:10.37,2013-09-03 01:43:00,
2013-09-02 20:48:00,71.9,0.0,29.90,NW,325,2.5,2.5,0,0.00,CLR,,0.00,WeatherDisplay:10.37,2013-09-03 01:48:00,
2013-09-02 20:53:00,71.6,0.0,29.90,North,360,0.0,0.0,0,0.00,CLR,,0.00,WeatherDisplay:10.37,2013-09-03 01:53:00,
2013-09-02 20:58:00,71.5,0.0,29.90,North,360,0.0,0.0,0,0.00,CLR,,0.00,WeatherDisplay:10.37,2013-09-03 01:58:00,
2013-09-02 21:03:00,71.1,0.0,29.91,North,360,9.2,9.2,0,0.00,CLR,,0.00,WeatherDisplay:10.37,2013-09-03 02:03:00,
2013-09-02 21:08:00,70.9,0.0,29.91,NW,325,5.0,5.0,0,0.00,CLR,,0.00,WeatherDisplay:10.37,2013-09-03 02:08:00,
2013-09-02 21:13:00,70.5,0.0,29.91,North,350,4.6,4.6,0,0.00,CLR,,0.00,WeatherDisplay:10.37,2013-09-03 02:13:00,
2013-09-02 21:18:00,70.3,0.0,29.91,North,350,0.0,0.0,0,0.00,CLR,,0.00,WeatherDisplay:10.37,2013-09-03 02:18:00,
2013-09-02 21:23:00,69.9,0.0,29.92,North,350,0.0,0.0,0,0.00,CLR,,0.00,WeatherDisplay:10.37,2013-09-03 02:23:00,
2013-09-02 21:28:00,69.7,0.0,29.92,North,7,0.0,0.0,0,0.00,CLR,,0.00,WeatherDisplay:10.37,2013-09-03 02:28:00,
2013-09-02 21:33:00,69.3,0.0,29.93,NNW,340,0.0,3.8,0,0.00,CLR,,0.00,WeatherDisplay:10.37,2013-09-03 02:33:00,
2013-09-02 21:38:00,69.2,0.0,29.93,NW,308,0.0,0.0,0,0.00,CLR,,0.00,WeatherDisplay:10.37,2013-09-03 02:38:00,
2013-09-02 21:43:00,68.6,0.0,29.93,NNW,330,0.0,0.0,0,0.00,CLR,,0.00,WeatherDisplay:10.37,2013-09-03 02:43:00,
2013-09-02 21:48:00,68.3,0.0,29.93,NNW,337,0.0,1.1,0,0.00,CLR,,0.00,WeatherDisplay:10.37,2013-09-03 02:48:00,
2013-09-02 21:53:00,68.2,0.0,29.93,NNW,335,3.5,3.5,0,0.00,CLR,,0.00,WeatherDisplay:10.37,2013-09-03 02:53:00,
2013-09-02 21:58:00,67.9,0.0,29.93,WNW,298,4.6,4.6,0,0.00,CLR,,0.00,WeatherDisplay:10.37,2013-09-03 02:58:00,
2013-09-02 22:03:00,67.9,0.0,29.93,NW,306,0.0,0.0,0,0.00,CLR,,0.00,WeatherDisplay:10.37,2013-09-03 03:03:00,
2013-09-02 22:08:00,67.5,0.0,29.93,NW,306,0.0,0.0,0,0.00,CLR,,0.00,WeatherDisplay:10.37,2013-09-03 03:08:00,
2013-09-02 22:13:00,67.3,0.0,29.93,NW,316,3.5,3.5,0,0.00,CLR,,0.00,WeatherDisplay:10.37,2013-09-03 03:13:00,
2013-09-02 22:18:00,67.1,0.0,29.93,NW,316,0.0,0.0,0,0.00,CLR,,0.00,WeatherDisplay:10.37,2013-09-03 03:18:00,
2013-09-02 22:23:00,66.8,0.0,29.93,NW,316,0.0,0.0,0,0.00,CLR,,0.00,WeatherDisplay:10.37,2013-09-03 03:23:00,
2013-09-02 22:28:00,66.3,0.0,29.93,NW,316,0.0,0.0,0,0.00,CLR,,0.00,WeatherDisplay:10.37,2013-09-03 03:28:00,
2013-09-02 22:33:00,66.1,0.0,29.93,NW,316,0.0,0.0,0,0.00,CLR,,0.00,WeatherDisplay:10.37,2013-09-03 03:33:00,
2013-09-02 22:38:00,65.8,0.0,29.93,NW,316,0.0,0.0,0,0.00,CLR,,0.00,WeatherDisplay:10.37,2013-09-03 03:38:00,
2013-09-02 22:43:00,65.6,0.0,29.93,NW,316,0.0,0.0,0,0.00,CLR,,0.00,WeatherDisplay:10.37,2013-09-03 03:43:00,
2013-09-02 22:48:00,65.4,0.0,29.94,NW,316,0.0,0.0,0,0.00,CLR,,0.00,WeatherDisplay:10.37,2013-09-03 03:48:00,
2013-09-02 22:53:00,64.9,0.0,29.94,NW,316,0.0,0.0,0,0.00,CLR,,0.00,WeatherDisplay:10.37,2013-09-03 03:53:00,
2013-09-02 22:58:00,64.8,0.0,29.94,NW,316,0.0,0.0,0,0.00,CLR,,0.00,WeatherDisplay:10.37,2013-09-03 03:58:00,
2013-09-02 23:01:00,64.7,0.0,29.94,NW,316,0.0,0.0,0,0.00,CLR,,0.00,WeatherDisplay:10.37,2013-09-03 04:01:00,
2013-09-02 23:06:00,64.4,0.0,29.94,NW,316,0.0,0.0,0,0.00,CLR,,0.00,WeatherDisplay:10.37,2013-09-03 04:06:00,
2013-09-02 23:11:00,64.4,0.0,29.94,NW,316,0.0,0.0,0,0.00,CLR,,0.00,WeatherDisplay:10.37,2013-09-03 04:11:00,
2013-09-02 23:16:00,64.4,0.0,29.94,NW,316,0.0,0.0,0,0.00,CLR,,0.00,WeatherDisplay:10.37,2013-09-03 04:16:00,
2013-09-02 23:21:00,64.4,0.0,29.94,NW,316,0.0,0.0,0,0.00,CLR,,0.00,WeatherDisplay:10.37,2013-09-03 04:21:00,
2013-09-02 23:26:00,64.2,0.0,29.94,NW,316,0.0,0.0,0,0.00,CLR,,0.00,WeatherDisplay:10.37,2013-09-03 04:26:00,
2013-09-02 23:31:00,64.1,0.0,29.94,NW,325,0.0,0.0,0,0.00,CLR,,0.00,WeatherDisplay:10.37,2013-09-03 04:31:00,
2013-09-02 23:36:00,63.8,0.0,29.94,NW,325,0.0,0.0,0,0.00,CLR,,0.00,WeatherDisplay:10.37,2013-09-03 04:36:00,
2013-09-02 23:41:00,63.9,0.0,29.94,NW,325,0.0,0.0,0,0.00,CLR,,0.00,WeatherDisplay:10.37,2013-09-03 04:41:00,
2013-09-02 23:46:00,63.5,0.0,29.94,NW,325,0.0,0.0,0,0.00,CLR,,0.00,WeatherDisplay:10.37,2013-09-03 04:46:00,
2013-09-02 23:51:00,63.4,0.0,29.94,NW,325,0.0,0.0,0,0.00,CLR,,0.00,WeatherDisplay:10.37,2013-09-03 04:51:00,
2013-09-02 23:56:00,63.2,0.0,29.94,NW,325,0.0,0.0,0,0.00,CLR,,0.00,WeatherDisplay:10.37,2013-09-03 04:56:00,